Time;durP1;ratioP1;P1;durP2;ratioP2;P2;SDS_P1;SDS_P2;PMS_P1;PMS_P2;Temp;Humidity;BMP_temperature;BMP_pressure;BME280_temperature;BME280_humidity;BME280_pressure;Samples;Min_cycle;Max_cycle;Signal;HPM_P1;HPM_P2
2023/07/17 00:01:33;;;;;;;9.00;3.20;;;;;;;;;;5048148;28;20282;-73
2023/07/17 00:03:58;;;;;;;11.60;3.42;;;;;;;;;;5049388;28;20298;-73
2023/07/17 00:06:23;;;;;;;12.17;3.03;;;;;;;;;;5049975;28;20013;-73
2023/07/17 00:08:48;;;;;;;10.23;3.60;;;;;;;;;;5047974;28;20358;-73
2023/07/17 00:11:14;;;;;;;6.38;3.22;;;;;;;;;;5045940;28;20652;-73
2023/07/17 00:13:39;;;;;;;4.95;2.38;;;;;;;;;;5048712;28;20036;-72
2023/07/17 00:16:04;;;;;;;11.20;3.07;;;;;;;;;;5049349;28;20684;-72
2023/07/17 00:18:31;;;;;;;10.63;3.07;;;;;;;;;;5047045;28;20337;-72
2023/07/17 00:20:56;;;;;;;9.10;3.00;;;;;;;;;;5048850;28;20074;-72
2023/07/17 00:23:22;;;;;;;12.98;3.17;;;;;;;;;;5052751;28;20390;-72
2023/07/17 00:25:47;;;;;;;9.83;2.93;;;;;;;;;;5050535;28;20033;-72
2023/07/17 00:28:12;;;;;;;8.57;3.03;;;;;;;;;;5052231;28;20270;-72
2023/07/17 00:30:38;;;;;;;8.27;2.80;;;;;;;;;;5051931;28;20733;-72
2023/07/17 00:33:03;;;;;;;6.95;3.17;;;;;;;;;;5052807;28;20256;-72
2023/07/17 00:35:29;;;;;;;19.07;4.13;;;;;;;;;;5052915;28;20111;-72
2023/07/17 00:37:54;;;;;;;13.07;3.78;;;;;;;;;;5051960;28;20021;-72
2023/07/17 00:40:19;;;;;;;13.80;3.60;;;;;;;;;;5049809;28;20048;-72
2023/07/17 00:42:44;;;;;;;16.97;3.67;;;;;;;;;;5051926;28;20649;-72
2023/07/17 00:45:09;;;;;;;10.93;3.27;;;;;;;;;;5049929;28;20765;-72
2023/07/17 00:47:36;;;;;;;7.80;3.63;;;;;;;;;;5052698;28;20243;-72
2023/07/17 00:50:03;;;;;;;7.82;3.83;;;;;;;;;;5051396;28;20025;-72
2023/07/17 00:52:29;;;;;;;13.75;3.75;;;;;;;;;;5051321;28;20028;-73
2023/07/17 00:54:54;;;;;;;12.27;3.47;;;;;;;;;;5052559;28;20017;-72
2023/07/17 00:57:21;;;;;;;9.38;3.40;;;;;;;;;;5050084;28;20020;-72
2023/07/17 00:59:47;;;;;;;10.77;3.38;;;;;;;;;;5049792;28;20028;-72
2023/07/17 01:02:13;;;;;;;8.52;2.88;;;;;;;;;;5051952;28;20459;-72
2023/07/17 01:04:42;;;;;;;8.70;3.67;;;;;;;;;;5044113;28;20021;-72
2023/07/17 01:07:07;;;;;;;11.27;2.97;;;;;;;;;;5052515;28;20035;-72
2023/07/17 01:09:33;;;;;;;14.27;3.13;;;;;;;;;;5051669;28;20032;-72
2023/07/17 01:11:58;;;;;;;11.73;2.50;;;;;;;;;;5050852;28;20271;-72
2023/07/17 01:14:23;;;;;;;5.77;2.63;;;;;;;;;;5051045;28;20048;-72
2023/07/17 01:16:48;;;;;;;12.80;4.50;;;;;;;;;;5052073;28;20306;-72
2023/07/17 01:19:14;;;;;;;14.10;3.45;;;;;;;;;;5052212;28;20290;-72
2023/07/17 01:21:42;;;;;;;8.48;3.20;;;;;;;;;;5049433;28;20017;-72
2023/07/17 01:24:08;;;;;;;9.18;2.83;;;;;;;;;;5051725;28;20513;-72
2023/07/17 01:26:33;;;;;;;6.60;2.22;;;;;;;;;;5050198;28;20078;-72
2023/07/17 01:28:58;;;;;;;9.30;2.77;;;;;;;;;;5046612;28;20474;-72
2023/07/17 01:31:23;;;;;;;8.27;2.07;;;;;;;;;;5049353;28;20287;-72
2023/07/17 01:33:48;;;;;;;4.53;2.00;;;;;;;;;;5050550;28;20077;-72
2023/07/17 01:36:15;;;;;;;5.87;2.23;;;;;;;;;;5051838;28;20260;-72
2023/07/17 01:38:40;;;;;;;7.55;2.35;;;;;;;;;;5044539;28;20279;-72
2023/07/17 01:41:05;;;;;;;6.27;2.27;;;;;;;;;;5046297;28;20045;-72
2023/07/17 01:43:30;;;;;;;7.60;2.27;;;;;;;;;;5049779;28;20333;-72
2023/07/17 01:45:55;;;;;;;5.97;1.93;;;;;;;;;;5051370;28;20029;-72
2023/07/17 01:48:21;;;;;;;5.87;1.83;;;;;;;;;;5050129;28;20299;-72
2023/07/17 01:50:46;;;;;;;7.28;1.98;;;;;;;;;;5048359;28;20275;-72
2023/07/17 01:53:12;;;;;;;4.25;2.22;;;;;;;;;;5050342;28;20021;-72
2023/07/17 01:55:37;;;;;;;4.63;1.95;;;;;;;;;;5049464;28;20482;-72
2023/07/17 01:58:03;;;;;;;9.10;3.08;;;;;;;;;;5049261;28;20029;-72
2023/07/17 02:00:28;;;;;;;5.88;2.35;;;;;;;;;;5049609;28;20406;-72
2023/07/17 02:02:53;;;;;;;4.40;2.33;;;;;;;;;;5051212;28;20024;-72
2023/07/17 02:05:18;;;;;;;4.93;1.90;;;;;;;;;;5049777;28;20628;-72
2023/07/17 02:07:43;;;;;;;9.45;2.20;;;;;;;;;;5051173;28;20041;-72
2023/07/17 02:10:09;;;;;;;8.50;3.00;;;;;;;;;;5046016;28;20044;-73
2023/07/17 02:12:34;;;;;;;4.93;1.83;;;;;;;;;;5050548;28;20107;-73
2023/07/17 02:14:59;;;;;;;8.40;2.00;;;;;;;;;;5051136;28;20029;-73
2023/07/17 02:17:24;;;;;;;6.63;2.05;;;;;;;;;;5049825;28;20295;-73
2023/07/17 02:19:50;;;;;;;7.85;2.90;;;;;;;;;;5049579;28;20017;-73
2023/07/17 02:22:15;;;;;;;9.43;2.63;;;;;;;;;;5048612;28;20071;-71
2023/07/17 02:24:40;;;;;;;11.03;2.60;;;;;;;;;;5048372;28;20844;-72
2023/07/17 02:27:05;;;;;;;8.60;2.43;;;;;;;;;;5051131;28;20278;-72
2023/07/17 02:29:30;;;;;;;8.17;2.33;;;;;;;;;;5050994;28;20317;-72
2023/07/17 02:31:56;;;;;;;6.22;2.28;;;;;;;;;;5048708;28;20337;-72
2023/07/17 02:34:21;;;;;;;8.17;2.73;;;;;;;;;;5048805;28;20021;-72
2023/07/17 02:36:46;;;;;;;9.07;2.53;;;;;;;;;;5047303;28;20752;-72
2023/07/17 02:39:11;;;;;;;10.27;2.58;;;;;;;;;;5048862;28;20029;-72
2023/07/17 02:41:37;;;;;;;8.68;2.92;;;;;;;;;;5045989;28;20108;-72
2023/07/17 02:44:02;;;;;;;6.15;2.35;;;;;;;;;;5047137;28;20032;-72
2023/07/17 02:46:27;;;;;;;8.02;2.70;;;;;;;;;;5047736;28;20032;-72
2023/07/17 02:48:53;;;;;;;4.28;2.00;;;;;;;;;;5050272;28;20493;-72
2023/07/17 02:51:18;;;;;;;7.70;2.40;;;;;;;;;;5046529;28;20494;-72
2023/07/17 02:53:44;;;;;;;5.85;2.33;;;;;;;;;;5048294;28;20276;-72
2023/07/17 02:56:09;;;;;;;5.65;2.20;;;;;;;;;;5050179;28;20066;-72
2023/07/17 02:58:35;;;;;;;4.55;2.42;;;;;;;;;;5050309;28;20021;-72
2023/07/17 03:01:00;;;;;;;7.38;2.88;;;;;;;;;;5043886;28;20025;-72
2023/07/17 03:03:25;;;;;;;7.35;2.20;;;;;;;;;;5049816;28;20017;-73
2023/07/17 03:05:50;;;;;;;7.77;3.20;;;;;;;;;;5050317;28;20025;-72
2023/07/17 03:08:15;;;;;;;10.40;2.90;;;;;;;;;;5047487;28;20323;-72
2023/07/17 03:10:40;;;;;;;7.57;2.30;;;;;;;;;;5049532;28;20275;-72
2023/07/17 03:13:06;;;;;;;8.68;2.75;;;;;;;;;;5050088;28;20263;-73
2023/07/17 03:15:31;;;;;;;8.37;2.23;;;;;;;;;;5048365;28;20026;-72
2023/07/17 03:17:56;;;;;;;4.43;2.27;;;;;;;;;;5049063;28;20283;-72
2023/07/17 03:20:21;;;;;;;7.07;2.30;;;;;;;;;;5049428;28;20276;-72
2023/07/17 03:22:48;;;;;;;4.35;2.30;;;;;;;;;;5047386;28;20917;-72
2023/07/17 03:25:13;;;;;;;6.88;2.25;;;;;;;;;;5045282;28;20644;-73
2023/07/17 03:27:38;;;;;;;5.30;2.30;;;;;;;;;;5049676;28;20021;-72
2023/07/17 03:30:04;;;;;;;5.85;1.85;;;;;;;;;;5048331;28;20283;-72
2023/07/17 03:32:31;;;;;;;5.78;1.80;;;;;;;;;;5049006;28;20529;-72
2023/07/17 03:34:56;;;;;;;9.90;1.92;;;;;;;;;;5047419;28;20021;-72
2023/07/17 03:37:21;;;;;;;6.17;2.30;;;;;;;;;;5048648;28;20087;-72
2023/07/17 03:39:46;;;;;;;6.87;2.33;;;;;;;;;;5046107;28;20656;-72
2023/07/17 03:42:12;;;;;;;7.40;2.50;;;;;;;;;;5044835;28;20270;-72
2023/07/17 03:44:38;;;;;;;8.35;2.90;;;;;;;;;;5039593;28;20362;-71
2023/07/17 03:47:03;;;;;;;11.63;2.03;;;;;;;;;;5044792;28;20592;-71
2023/07/17 03:49:29;;;;;;;6.32;2.30;;;;;;;;;;5045270;28;20093;-72
2023/07/17 03:51:54;;;;;;;8.30;2.38;;;;;;;;;;5042909;28;20490;-71
2023/07/17 03:54:19;;;;;;;4.95;1.92;;;;;;;;;;5047225;28;20074;-72
2023/07/17 03:56:45;;;;;;;7.20;2.67;;;;;;;;;;5048556;28;21013;-72
2023/07/17 03:59:10;;;;;;;9.43;2.47;;;;;;;;;;5049815;28;20291;-72
2023/07/17 04:01:35;;;;;;;5.70;2.97;;;;;;;;;;5048521;28;20414;-72
2023/07/17 04:04:00;;;;;;;4.15;2.30;;;;;;;;;;5046847;28;20088;-72
2023/07/17 04:06:25;;;;;;;5.63;2.07;;;;;;;;;;5050419;28;20021;-71
2023/07/17 04:08:51;;;;;;;5.70;2.13;;;;;;;;;;5050233;28;20311;-72
2023/07/17 04:11:16;;;;;;;8.35;2.25;;;;;;;;;;5048180;28;20883;-72
2023/07/17 04:13:42;;;;;;;7.13;2.08;;;;;;;;;;5051269;28;20036;-72
2023/07/17 04:16:07;;;;;;;9.43;3.00;;;;;;;;;;5047906;28;20028;-72
2023/07/17 04:18:32;;;;;;;11.40;2.70;;;;;;;;;;5050554;28;20024;-72
2023/07/17 04:20:58;;;;;;;7.10;1.88;;;;;;;;;;5051840;28;20032;-71
2023/07/17 04:23:23;;;;;;;9.73;2.30;;;;;;;;;;5051288;28;20027;-72
2023/07/17 04:25:49;;;;;;;13.40;3.27;;;;;;;;;;5053960;28;20056;-71
2023/07/17 04:28:14;;;;;;;7.80;2.40;;;;;;;;;;5051000;28;20288;-72
2023/07/17 04:30:39;;;;;;;8.67;4.03;;;;;;;;;;5049468;28;20462;-71
2023/07/17 04:33:04;;;;;;;29.27;4.43;;;;;;;;;;5051807;28;20275;-71
2023/07/17 04:35:35;;;;;;;5.97;2.47;;;;;;;;;;5051624;28;20346;-72
2023/07/17 04:38:00;;;;;;;9.35;2.88;;;;;;;;;;5052279;28;20774;-72
2023/07/17 04:40:25;;;;;;;8.07;2.30;;;;;;;;;;5047701;28;20037;-72
2023/07/17 04:42:50;;;;;;;9.77;2.10;;;;;;;;;;5047153;28;20317;-72
2023/07/17 04:45:19;;;;;;;5.63;2.60;;;;;;;;;;5047055;28;21275;-72
2023/07/17 04:47:44;;;;;;;12.13;2.42;;;;;;;;;;5043877;28;20267;-72
2023/07/17 04:50:09;;;;;;;8.57;2.90;;;;;;;;;;5046050;28;20082;-72
2023/07/17 04:52:35;;;;;;;10.57;2.63;;;;;;;;;;5044866;28;20275;-72
2023/07/17 04:55:00;;;;;;;5.33;2.23;;;;;;;;;;5047226;28;20087;-72
2023/07/17 04:57:25;;;;;;;9.10;2.47;;;;;;;;;;5044807;28;20740;-72
2023/07/17 04:59:51;;;;;;;6.05;1.98;;;;;;;;;;5044130;28;20021;-72
2023/07/17 05:02:16;;;;;;;5.63;2.00;;;;;;;;;;5038460;28;20115;-72
2023/07/17 05:04:41;;;;;;;6.77;2.00;;;;;;;;;;5042846;28;20016;-72
2023/07/17 05:07:06;;;;;;;5.72;1.98;;;;;;;;;;5040282;28;20272;-72
2023/07/17 05:09:32;;;;;;;4.97;2.03;;;;;;;;;;5039446;28;20025;-72
2023/07/17 05:11:57;;;;;;;4.95;2.30;;;;;;;;;;5042406;28;20641;-72
2023/07/17 05:14:23;;;;;;;4.10;1.90;;;;;;;;;;5043536;28;20056;-72
2023/07/17 05:16:48;;;;;;;10.33;2.17;;;;;;;;;;5044409;28;20271;-72
2023/07/17 05:19:13;;;;;;;6.57;1.97;;;;;;;;;;5044874;28;20050;-72
2023/07/17 05:21:38;;;;;;;10.47;4.37;;;;;;;;;;5045457;28;20275;-72
2023/07/17 05:24:03;;;;;;;10.32;2.58;;;;;;;;;;5038323;28;20271;-72
2023/07/17 05:26:29;;;;;;;4.43;2.22;;;;;;;;;;5045259;28;20485;-72
2023/07/17 05:28:54;;;;;;;6.63;1.92;;;;;;;;;;5043472;28;20056;-72
2023/07/17 05:31:19;;;;;;;6.83;2.07;;;;;;;;;;5044260;28;20025;-72
2023/07/17 05:33:44;;;;;;;7.30;2.30;;;;;;;;;;5042878;28;20301;-72
2023/07/17 05:36:09;;;;;;;7.20;2.93;;;;;;;;;;5043578;28;20031;-72
2023/07/17 05:38:34;;;;;;;6.07;2.13;;;;;;;;;;5045264;28;20378;-72
2023/07/17 05:41:03;;;;;;;5.80;1.97;;;;;;;;;;5045108;28;20271;-72
2023/07/17 05:43:30;;;;;;;7.50;2.67;;;;;;;;;;5043622;28;20275;-72
2023/07/17 05:45:56;;;;;;;6.03;2.22;;;;;;;;;;5050051;28;20484;-72
2023/07/17 05:48:21;;;;;;;9.35;2.08;;;;;;;;;;5046140;28;20020;-72
2023/07/17 05:50:46;;;;;;;7.82;2.15;;;;;;;;;;5046919;28;20022;-72
2023/07/17 05:53:11;;;;;;;6.45;2.42;;;;;;;;;;5048343;28;20012;-72
2023/07/17 05:55:37;;;;;;;7.17;2.40;;;;;;;;;;5048877;28;20105;-72
2023/07/17 05:58:02;;;;;;;9.63;2.20;;;;;;;;;;5044907;28;20267;-72
2023/07/17 06:00:27;;;;;;;9.45;2.45;;;;;;;;;;5050130;28;20294;-72
2023/07/17 06:02:52;;;;;;;8.67;2.73;;;;;;;;;;5048086;28;20021;-72
2023/07/17 06:05:17;;;;;;;8.10;2.27;;;;;;;;;;5045711;28;20274;-72
2023/07/17 06:07:43;;;;;;;8.68;2.83;;;;;;;;;;5046504;28;20264;-72
2023/07/17 06:10:08;;;;;;;10.33;2.60;;;;;;;;;;5049507;28;20025;-72
2023/07/17 06:12:33;;;;;;;11.52;2.85;;;;;;;;;;5048032;28;20033;-72
2023/07/17 06:14:59;;;;;;;8.93;3.10;;;;;;;;;;5047842;28;20139;-72
2023/07/17 06:17:24;;;;;;;11.35;3.63;;;;;;;;;;5049606;28;20376;-72
2023/07/17 06:19:49;;;;;;;9.05;3.40;;;;;;;;;;5043197;28;20029;-72
2023/07/17 06:22:15;;;;;;;6.60;3.00;;;;;;;;;;5043724;28;20509;-72
2023/07/17 06:24:40;;;;;;;6.35;2.65;;;;;;;;;;5049522;28;20279;-72
2023/07/17 06:27:05;;;;;;;11.67;3.13;;;;;;;;;;5049684;28;20100;-72
2023/07/17 06:29:31;;;;;;;7.10;3.22;;;;;;;;;;5048746;28;20276;-72
2023/07/17 06:31:56;;;;;;;17.87;4.50;;;;;;;;;;5048208;28;20021;-72
2023/07/17 06:34:21;;;;;;;11.30;4.07;;;;;;;;;;5048407;28;20329;-72
2023/07/17 06:36:48;;;;;;;10.60;3.43;;;;;;;;;;5047139;28;20029;-72
2023/07/17 06:39:13;;;;;;;9.43;3.00;;;;;;;;;;5050572;28;20291;-72
2023/07/17 06:41:38;;;;;;;8.75;3.20;;;;;;;;;;5049686;28;20021;-72
2023/07/17 06:44:03;;;;;;;8.68;2.85;;;;;;;;;;5047634;28;20016;-72
2023/07/17 06:46:29;;;;;;;6.28;2.95;;;;;;;;;;5049340;28;20021;-72
2023/07/17 06:48:54;;;;;;;9.63;4.50;;;;;;;;;;5049513;28;20052;-72
2023/07/17 06:51:19;;;;;;;7.57;2.97;;;;;;;;;;5043694;28;20617;-72
2023/07/17 06:53:44;;;;;;;6.07;2.97;;;;;;;;;;5042447;28;20033;-72
2023/07/17 06:56:10;;;;;;;10.30;3.85;;;;;;;;;;5049179;28;20263;-72
2023/07/17 06:58:35;;;;;;;14.73;3.87;;;;;;;;;;5050095;28;20486;-71
2023/07/17 07:01:00;;;;;;;7.90;2.75;;;;;;;;;;5048742;28;20334;-72
2023/07/17 07:03:26;;;;;;;8.30;4.05;;;;;;;;;;5049328;28;20367;-72
2023/07/17 07:05:56;;;;;;;6.88;3.20;;;;;;;;;;5048580;28;20017;-72
2023/07/17 07:08:21;;;;;;;9.10;3.08;;;;;;;;;;5038759;28;20009;-72
2023/07/17 07:10:49;;;;;;;10.35;3.25;;;;;;;;;;5047736;28;20382;-72
2023/07/17 07:13:14;;;;;;;10.68;3.10;;;;;;;;;;5046831;28;20070;-72
2023/07/17 07:15:39;;;;;;;13.10;3.30;;;;;;;;;;5049776;28;20029;-72
2023/07/17 07:18:05;;;;;;;11.20;3.28;;;;;;;;;;5048942;28;20027;-72
2023/07/17 07:20:30;;;;;;;13.90;3.17;;;;;;;;;;5049337;28;20025;-72
2023/07/17 07:22:55;;;;;;;8.87;3.07;;;;;;;;;;5045721;28;20053;-72
2023/07/17 07:25:21;;;;;;;11.77;3.40;;;;;;;;;;5048005;28;20693;-72
2023/07/17 07:27:46;;;;;;;11.48;3.97;;;;;;;;;;5045592;28;20013;-72
2023/07/17 07:30:11;;;;;;;9.82;3.75;;;;;;;;;;5048179;28;20096;-72
2023/07/17 07:32:39;;;;;;;10.05;4.30;;;;;;;;;;5048795;28;20028;-72
2023/07/17 07:35:04;;;;;;;6.82;3.70;;;;;;;;;;5052449;28;20047;-72
2023/07/17 07:37:30;;;;;;;9.55;4.45;;;;;;;;;;5052224;28;20020;-72
2023/07/17 07:39:55;;;;;;;10.63;3.80;;;;;;;;;;5051220;28;20025;-72
2023/07/17 07:42:20;;;;;;;12.35;3.38;;;;;;;;;;5050531;28;20282;-72
2023/07/17 07:44:45;;;;;;;9.37;3.37;;;;;;;;;;5048110;28;20024;-72
2023/07/17 07:47:10;;;;;;;13.10;3.67;;;;;;;;;;5048640;28;20644;-72
2023/07/17 07:49:36;;;;;;;6.40;3.50;;;;;;;;;;5047712;28;20358;-73
2023/07/17 07:52:01;;;;;;;10.17;3.20;;;;;;;;;;5049345;28;20286;-73
2023/07/17 07:54:26;;;;;;;5.63;3.17;;;;;;;;;;5049655;28;20092;-73
2023/07/17 07:56:51;;;;;;;7.80;3.57;;;;;;;;;;5048035;28;20271;-73
2023/07/17 07:59:16;;;;;;;12.17;3.63;;;;;;;;;;5052494;28;20020;-73
2023/07/17 08:01:41;;;;;;;7.53;3.47;;;;;;;;;;5052444;28;20033;-73
2023/07/17 08:04:07;;;;;;;9.73;4.27;;;;;;;;;;5052798;28;20170;-73
2023/07/17 08:06:32;;;;;;;9.00;3.20;;;;;;;;;;5050520;28;20373;-73
2023/07/17 08:08:57;;;;;;;9.97;3.53;;;;;;;;;;5047221;28;20497;-73
2023/07/17 08:11:22;;;;;;;9.37;3.50;;;;;;;;;;5048020;28;20285;-73
2023/07/17 08:13:48;;;;;;;7.20;3.03;;;;;;;;;;5052118;28;20028;-73
2023/07/17 08:16:13;;;;;;;8.17;3.17;;;;;;;;;;5053359;28;20032;-73
2023/07/17 08:18:38;;;;;;;8.13;3.20;;;;;;;;;;5050947;28;20119;-73
2023/07/17 08:21:03;;;;;;;7.57;2.53;;;;;;;;;;5045686;28;20017;-73
2023/07/17 08:23:29;;;;;;;8.40;3.07;;;;;;;;;;5044024;28;20030;-73
2023/07/17 08:25:54;;;;;;;7.78;3.30;;;;;;;;;;5049160;28;20272;-72
2023/07/17 08:28:20;;;;;;;10.20;3.38;;;;;;;;;;5049768;28;20052;-72
2023/07/17 08:30:45;;;;;;;9.85;2.97;;;;;;;;;;5048002;28;20405;-72
2023/07/17 08:33:11;;;;;;;5.13;2.57;;;;;;;;;;5051786;28;20017;-72
2023/07/17 08:35:36;;;;;;;7.25;3.47;;;;;;;;;;5051859;28;20391;-72
2023/07/17 08:38:01;;;;;;;6.20;2.80;;;;;;;;;;5052209;28;20031;-72
2023/07/17 08:40:27;;;;;;;6.93;3.13;;;;;;;;;;5051775;28;20284;-73
2023/07/17 08:42:52;;;;;;;11.10;3.10;;;;;;;;;;5050084;28;20325;-72
2023/07/17 08:45:19;;;;;;;8.18;3.22;;;;;;;;;;5049688;28;20017;-72
2023/07/17 08:47:46;;;;;;;8.70;3.42;;;;;;;;;;5050901;28;20553;-72
2023/07/17 08:50:11;;;;;;;8.93;3.60;;;;;;;;;;5049411;28;20056;-72
2023/07/17 08:52:36;;;;;;;9.43;3.90;;;;;;;;;;5052331;28;20056;-72
2023/07/17 08:55:01;;;;;;;9.52;4.05;;;;;;;;;;5050816;28;20667;-72
2023/07/17 08:57:27;;;;;;;9.05;4.32;;;;;;;;;;5049690;28;20016;-72
2023/07/17 08:59:54;;;;;;;9.00;4.22;;;;;;;;;;5050208;28;20029;-72
2023/07/17 09:02:19;;;;;;;8.98;3.22;;;;;;;;;;5050905;28;20017;-72
2023/07/17 09:04:44;;;;;;;12.10;3.78;;;;;;;;;;5050206;28;20036;-72
2023/07/17 09:07:09;;;;;;;10.97;3.90;;;;;;;;;;5052059;28;20071;-72
2023/07/17 09:09:35;;;;;;;8.32;3.72;;;;;;;;;;5050026;28;20275;-72
2023/07/17 09:12:10;;;;;;;8.00;3.97;;;;;;;;;;5049256;28;20465;-72
2023/07/17 09:14:35;;;;;;;10.27;4.20;;;;;;;;;;5049412;28;20029;-73
2023/07/17 09:17:02;;;;;;;6.70;3.00;;;;;;;;;;5047288;28;20078;-73
2023/07/17 09:19:29;;;;;;;8.63;3.50;;;;;;;;;;5050560;28;20713;-73
2023/07/17 09:21:57;;;;;;;11.10;4.55;;;;;;;;;;5046007;28;20553;-73
2023/07/17 09:24:22;;;;;;;8.77;2.83;;;;;;;;;;5047913;28;20474;-73
2023/07/17 09:26:54;;;;;;;8.70;3.57;;;;;;;;;;5047425;28;20086;-73
2023/07/17 09:29:21;;;;;;;7.13;3.13;;;;;;;;;;5043369;28;20021;-73
2023/07/17 09:31:46;;;;;;;8.98;3.92;;;;;;;;;;5047455;28;20040;-73
2023/07/17 09:34:12;;;;;;;10.50;3.90;;;;;;;;;;5051564;28;20024;-73
2023/07/17 09:36:37;;;;;;;12.85;3.60;;;;;;;;;;5049692;28;20428;-72
2023/07/17 09:39:04;;;;;;;10.65;3.20;;;;;;;;;;5047739;28;20043;-71
2023/07/17 09:41:30;;;;;;;6.75;3.13;;;;;;;;;;5050137;28;20013;-71
2023/07/17 09:44:03;;;;;;;10.30;3.77;;;;;;;;;;5043931;28;20436;-71
2023/07/17 09:46:29;;;;;;;5.43;3.22;;;;;;;;;;5044917;28;20028;-71
2023/07/17 09:48:54;;;;;;;8.35;3.45;;;;;;;;;;5046725;28;20017;-71
2023/07/17 09:51:20;;;;;;;9.15;3.55;;;;;;;;;;5040778;28;20016;-71
2023/07/17 09:53:45;;;;;;;6.28;3.33;;;;;;;;;;5047482;28;20025;-71
2023/07/17 09:56:13;;;;;;;9.57;4.55;;;;;;;;;;5045256;28;20082;-71
2023/07/17 09:58:39;;;;;;;8.45;4.13;;;;;;;;;;5048189;28;20081;-71
2023/07/17 10:01:05;;;;;;;10.80;3.85;;;;;;;;;;5047472;28;20391;-71
2023/07/17 10:03:32;;;;;;;11.52;3.55;;;;;;;;;;5041088;28;20116;-71
2023/07/17 10:05:58;;;;;;;8.30;3.90;;;;;;;;;;5047279;28;20048;-71
2023/07/17 10:08:23;;;;;;;9.80;3.42;;;;;;;;;;5051344;28;20466;-73
2023/07/17 10:10:48;;;;;;;17.75;3.83;;;;;;;;;;5048594;28;20037;-73
2023/07/17 10:13:14;;;;;;;9.13;3.40;;;;;;;;;;5042221;28;20025;-71
2023/07/17 10:15:46;;;;;;;8.43;3.50;;;;;;;;;;5063686;28;20407;-72
2023/07/17 10:18:12;;;;;;;7.28;3.40;;;;;;;;;;5050208;28;20025;-72
2023/07/17 10:20:40;;;;;;;10.68;4.43;;;;;;;;;;5052657;28;20017;-72
2023/07/17 10:23:09;;;;;;;7.22;3.47;;;;;;;;;;5040530;28;20082;-72
2023/07/17 10:25:36;;;;;;;9.63;3.50;;;;;;;;;;5047255;28;20071;-72
2023/07/17 10:28:02;;;;;;;17.85;4.35;;;;;;;;;;5045618;28;20109;-72
2023/07/17 10:30:29;;;;;;;13.32;4.15;;;;;;;;;;5044329;28;20102;-72
2023/07/17 10:33:07;;;;;;;12.80;4.13;;;;;;;;;;5043871;28;20570;-72
2023/07/17 10:35:53;;;;;;;8.50;4.05;;;;;;;;;;5040219;28;20025;-72
2023/07/17 10:38:22;;;;;;;12.63;4.05;;;;;;;;;;5039548;28;20018;-72
2023/07/17 10:40:48;;;;;;;13.60;5.23;;;;;;;;;;5047500;28;20185;-72
2023/07/17 10:43:19;;;;;;;9.57;3.40;;;;;;;;;;5046288;28;20526;-72
2023/07/17 10:45:46;;;;;;;10.30;3.83;;;;;;;;;;5047671;28;20021;-72
2023/07/17 10:48:12;;;;;;;7.40;3.90;;;;;;;;;;5040989;28;20025;-72
2023/07/17 10:50:38;;;;;;;7.05;3.55;;;;;;;;;;5046776;28;20031;-72
2023/07/17 10:53:04;;;;;;;11.57;4.43;;;;;;;;;;5049270;28;20025;-72
2023/07/17 10:55:30;;;;;;;13.90;3.78;;;;;;;;;;5047540;28;20029;-72
2023/07/17 10:57:56;;;;;;;6.43;2.97;;;;;;;;;;5043608;28;20023;-72
2023/07/17 11:00:21;;;;;;;7.75;3.58;;;;;;;;;;5041109;28;20021;-72
2023/07/17 11:02:47;;;;;;;7.82;4.32;;;;;;;;;;5044025;28;20078;-72
2023/07/17 11:05:12;;;;;;;9.47;4.30;;;;;;;;;;5046257;28;20064;-72
2023/07/17 11:07:37;;;;;;;8.93;4.20;;;;;;;;;;5048003;28;20017;-72
2023/07/17 11:10:03;;;;;;;12.07;3.70;;;;;;;;;;5040724;28;20025;-72
2023/07/17 11:12:28;;;;;;;7.32;3.15;;;;;;;;;;5041903;28;20021;-72
2023/07/17 11:14:53;;;;;;;9.98;3.83;;;;;;;;;;5041801;28;20378;-72
2023/07/17 11:17:19;;;;;;;9.83;3.37;;;;;;;;;;5042089;28;20021;-72
2023/07/17 11:19:44;;;;;;;12.32;4.28;;;;;;;;;;5042320;28;20263;-72
2023/07/17 11:22:09;;;;;;;12.98;4.90;;;;;;;;;;5039773;28;20020;-72
2023/07/17 11:24:35;;;;;;;11.63;4.18;;;;;;;;;;5048591;28;20049;-72
2023/07/17 11:27:00;;;;;;;8.53;3.00;;;;;;;;;;5028595;28;20041;-72
2023/07/17 11:29:25;;;;;;;7.30;3.50;;;;;;;;;;5022665;28;20341;-73
2023/07/17 11:31:59;;;;;;;10.82;4.18;;;;;;;;;;5023297;28;20049;-73
2023/07/17 11:34:24;;;;;;;9.48;3.88;;;;;;;;;;5030704;28;20081;-73
2023/07/17 11:36:49;;;;;;;12.85;3.97;;;;;;;;;;5021190;28;20634;-72
2023/07/17 11:39:16;;;;;;;11.67;3.60;;;;;;;;;;5028330;28;20026;-72
2023/07/17 11:41:43;;;;;;;9.63;4.15;;;;;;;;;;5023669;28;20083;-73
2023/07/17 11:44:09;;;;;;;12.63;4.10;;;;;;;;;;5023361;28;20116;-72
2023/07/17 11:46:34;;;;;;;11.47;4.33;;;;;;;;;;5024329;28;20419;-73
2023/07/17 11:48:59;;;;;;;9.33;3.73;;;;;;;;;;5021008;28;20366;-72
2023/07/17 11:51:25;;;;;;;8.52;4.28;;;;;;;;;;5027576;28;20282;-73
2023/07/17 11:53:54;;;;;;;6.72;3.40;;;;;;;;;;5028510;28;20021;-72
2023/07/17 11:56:20;;;;;;;6.78;3.33;;;;;;;;;;5023853;28;20060;-72
2023/07/17 11:58:50;;;;;;;13.68;4.03;;;;;;;;;;5028879;28;20386;-72
2023/07/17 12:01:15;;;;;;;;;;;;;;;;;;5029173;28;20013;-72
2023/07/17 12:03:40;;;;;;;7.18;3.28;;;;;;;;;;5031048;28;19911;-72
2023/07/17 12:06:05;;;;;;;6.63;3.33;;;;;;;;;;5029463;28;20378;-72
2023/07/17 12:08:31;;;;;;;10.43;3.60;;;;;;;;;;5028736;28;20053;-72
2023/07/17 12:10:57;;;;;;;8.43;3.58;;;;;;;;;;5030606;28;20053;-72
2023/07/17 12:13:22;;;;;;;7.93;3.78;;;;;;;;;;5022876;28;20021;-72
2023/07/17 12:15:47;;;;;;;11.10;3.67;;;;;;;;;;5029826;28;20037;-72
2023/07/17 12:18:12;;;;;;;6.78;3.85;;;;;;;;;;5033132;28;20026;-72
2023/07/17 12:20:37;;;;;;;8.90;4.20;;;;;;;;;;5031789;28;20041;-73
2023/07/17 12:23:03;;;;;;;10.63;4.57;;;;;;;;;;5028433;28;20622;-72
2023/07/17 12:25:30;;;;;;;7.68;3.65;;;;;;;;;;5030787;28;20052;-73
2023/07/17 12:27:58;;;;;;;9.05;3.72;;;;;;;;;;5029272;28;20029;-73
2023/07/17 12:30:23;;;;;;;10.18;4.32;;;;;;;;;;5029386;28;20024;-73
2023/07/17 12:32:49;;;;;;;10.85;3.67;;;;;;;;;;5024139;28;20498;-73
2023/07/17 12:35:14;;;;;;;10.65;3.90;;;;;;;;;;5026402;28;20104;-73
2023/07/17 12:37:39;;;;;;;13.40;4.07;;;;;;;;;;5024636;28;20505;-72
2023/07/17 12:40:05;;;;;;;10.87;4.97;;;;;;;;;;5030682;28;20029;-72
2023/07/17 12:42:30;;;;;;;12.25;4.07;;;;;;;;;;5022590;28;20017;-72
2023/07/17 12:44:55;;;;;;;9.53;4.50;;;;;;;;;;5030536;28;20100;-72
2023/07/17 12:47:21;;;;;;;11.38;4.75;;;;;;;;;;5028048;28;20025;-72
2023/07/17 12:49:47;;;;;;;9.45;4.72;;;;;;;;;;5020905;28;20025;-72
2023/07/17 12:52:12;;;;;;;9.45;4.07;;;;;;;;;;5028826;28;20031;-72
2023/07/17 12:54:37;;;;;;;8.90;4.10;;;;;;;;;;5027338;28;20029;-72
2023/07/17 12:57:03;;;;;;;12.60;4.37;;;;;;;;;;5037184;28;20027;-72
2023/07/17 12:59:28;;;;;;;10.82;4.57;;;;;;;;;;5025120;28;20612;-72
2023/07/17 13:01:54;;;;;;;11.80;4.40;;;;;;;;;;5016992;28;20048;-73
2023/07/17 13:04:19;;;;;;;12.48;4.20;;;;;;;;;;5015344;28;20030;-73
2023/07/17 13:06:45;;;;;;;7.93;4.13;;;;;;;;;;5024983;28;20021;-73
2023/07/17 13:09:10;;;;;;;21.55;3.97;;;;;;;;;;5022194;28;20030;-73
2023/07/17 13:11:35;;;;;;;8.93;4.57;;;;;;;;;;5023813;28;20033;-73
2023/07/17 13:14:04;;;;;;;8.97;3.87;;;;;;;;;;5024129;28;20474;-73
2023/07/17 13:16:29;;;;;;;10.82;4.63;;;;;;;;;;5026126;28;20116;-73
2023/07/17 13:18:55;;;;;;;12.07;4.40;;;;;;;;;;5025078;28;20113;-73
2023/07/17 13:21:21;;;;;;;10.32;5.13;;;;;;;;;;5017933;28;20269;-73
2023/07/17 13:23:46;;;;;;;13.98;4.25;;;;;;;;;;5019326;28;20086;-73
2023/07/17 13:26:11;;;;;;;9.30;4.27;;;;;;;;;;5022180;28;20026;-73
2023/07/17 13:28:36;;;;;;;8.50;3.80;;;;;;;;;;5017506;28;20030;-73
2023/07/17 13:31:02;;;;;;;13.67;4.37;;;;;;;;;;5016332;28;20272;-73
2023/07/17 13:33:27;;;;;;;10.25;5.10;;;;;;;;;;5018510;28;20280;-73
2023/07/17 13:35:52;;;;;;;6.37;3.50;;;;;;;;;;5023868;28;20112;-73
2023/07/17 13:38:17;;;;;;;9.43;3.88;;;;;;;;;;5026113;28;20272;-73
2023/07/17 13:40:43;;;;;;;7.43;3.50;;;;;;;;;;5021310;28;20109;-73
2023/07/17 13:43:08;;;;;;;7.35;3.58;;;;;;;;;;5028742;28;20018;-73
2023/07/17 13:45:33;;;;;;;8.97;4.27;;;;;;;;;;5027002;28;20227;-73
2023/07/17 13:47:58;;;;;;;9.23;3.67;;;;;;;;;;5033894;28;20029;-73
2023/07/17 13:50:23;;;;;;;7.03;3.13;;;;;;;;;;5027063;28;20503;-73
2023/07/17 13:52:49;;;;;;;12.57;4.27;;;;;;;;;;5028343;28;20159;-73
2023/07/17 13:55:14;;;;;;;9.50;3.67;;;;;;;;;;5027976;28;20378;-73
2023/07/17 13:57:39;;;;;;;10.63;4.77;;;;;;;;;;5032390;28;20049;-73
2023/07/17 14:00:04;;;;;;;9.87;4.00;;;;;;;;;;5030248;28;20406;-73
2023/07/17 14:02:30;;;;;;;15.27;4.15;;;;;;;;;;5030043;28;20264;-73
2023/07/17 14:04:55;;;;;;;14.27;4.45;;;;;;;;;;5019537;28;20446;-73
2023/07/17 14:07:20;;;;;;;13.43;3.87;;;;;;;;;;5021388;28;20171;-72
2023/07/17 14:09:45;;;;;;;10.40;3.97;;;;;;;;;;5018444;28;20052;-72
2023/07/17 14:12:10;;;;;;;9.10;3.37;;;;;;;;;;5015824;28;20284;-73
2023/07/17 14:14:36;;;;;;;7.60;4.07;;;;;;;;;;5025305;28;20296;-73
2023/07/17 14:17:01;;;;;;;5.93;3.03;;;;;;;;;;5027949;28;20279;-73
2023/07/17 14:19:26;;;;;;;5.70;2.90;;;;;;;;;;5028409;28;20268;-73
2023/07/17 14:21:52;;;;;;;6.50;3.55;;;;;;;;;;5043442;28;20307;-73
2023/07/17 14:24:17;;;;;;;9.50;3.63;;;;;;;;;;5028114;28;20017;-73
2023/07/17 14:26:42;;;;;;;11.70;3.87;;;;;;;;;;5030667;28;20104;-73
2023/07/17 14:29:07;;;;;;;10.73;3.90;;;;;;;;;;5031864;28;20306;-73